Time;durP1;ratioP1;P1;durP2;ratioP2;P2;SDS_P1;SDS_P2;PMS_P1;PMS_P2;Temp;Humidity;BMP_temperature;BMP_pressure;BME280_temperature;BME280_humidity;BME280_pressure;Samples;Min_cycle;Max_cycle;Signal;HPM_P1;HPM_P2
2021/04/30 00:00:00;;;;;;;41.88;28.10;;;3.30;99.90;;;;;;5017922;28;20080;-79
2021/04/30 00:02:26;;;;;;;45.58;26.20;;;3.30;99.90;;;;;;5018054;28;20026;-79
2021/04/30 00:04:51;;;;;;;44.38;26.52;;;3.40;99.90;;;;;;5016634;28;20629;-79
2021/04/30 00:07:17;;;;;;;48.35;31.20;;;3.40;99.90;;;;;;5017998;28;20036;-79
2021/04/30 00:09:42;;;;;;;50.28;31.65;;;3.50;99.90;;;;;;5016804;28;20034;-79
2021/04/30 00:12:08;;;;;;;56.20;34.05;;;3.50;99.90;;;;;;5017884;28;20110;-79
2021/04/30 00:14:34;;;;;;;53.20;31.00;;;3.50;99.90;;;;;;5016143;28;20022;-79
2021/04/30 00:17:00;;;;;;;51.13;31.02;;;3.50;99.90;;;;;;5016310;28;20025;-79
2021/04/30 00:19:26;;;;;;;53.50;31.38;;;3.40;99.90;;;;;;5017989;28;20100;-79
2021/04/30 00:21:51;;;;;;;46.25;31.15;;;3.40;99.90;;;;;;5015776;28;20113;-79
2021/04/30 00:24:17;;;;;;;56.70;33.65;;;3.40;99.90;;;;;;5015333;28;20501;-79
2021/04/30 00:26:43;;;;;;;49.00;32.58;;;3.40;99.90;;;;;;5016423;28;20042;-79
2021/04/30 00:29:09;;;;;;;53.40;31.52;;;3.40;99.90;;;;;;5017913;28;20497;-79
2021/04/30 00:31:35;;;;;;;49.33;31.63;;;3.40;99.90;;;;;;5017658;28;20052;-79
2021/04/30 00:34:03;;;;;;;59.60;33.30;;;3.40;99.90;;;;;;5016286;28;20164;-79
2021/04/30 00:36:28;;;;;;;64.55;35.30;;;3.40;99.90;;;;;;5016962;28;20026;-79
2021/04/30 00:38:55;;;;;;;62.53;37.40;;;3.50;99.90;;;;;;5016969;28;20029;-79
2021/04/30 00:41:20;;;;;;;69.10;39.35;;;3.50;99.90;;;;;;5017461;28;20030;-79
2021/04/30 00:43:46;;;;;;;68.43;38.15;;;3.60;99.90;;;;;;5016935;28;20401;-79
2021/04/30 00:46:12;;;;;;;60.38;35.55;;;3.60;99.90;;;;;;5011223;28;20503;-79
2021/04/30 00:48:41;;;;;;;55.72;35.58;;;3.50;99.90;;;;;;5013283;28;20065;-79
2021/04/30 00:51:06;;;;;;;58.60;34.83;;;3.50;99.90;;;;;;5012323;28;20026;-79
2021/04/30 00:53:32;;;;;;;64.18;35.75;;;3.40;99.90;;;;;;5011718;28;20076;-79
2021/04/30 00:55:58;;;;;;;55.45;35.35;;;3.30;99.90;;;;;;5012815;28;20088;-79
2021/04/30 00:58:23;;;;;;;49.83;32.80;;;3.20;99.90;;;;;;5013653;28;20061;-79
2021/04/30 01:00:49;;;;;;;54.67;32.47;;;3.10;99.90;;;;;;5014170;28;20794;-79
2021/04/30 01:03:15;;;;;;;54.63;34.47;;;3.10;99.90;;;;;;5014373;28;20109;-79
2021/04/30 01:05:41;;;;;;;57.83;35.13;;;3.00;99.90;;;;;;5011234;28;20508;-79
2021/04/30 01:08:07;;;;;;;63.40;37.47;;;2.90;99.90;;;;;;5014209;28;20083;-79
2021/04/30 01:10:33;;;;;;;54.80;35.67;;;2.90;99.90;;;;;;5013096;28;20029;-79
2021/04/30 01:12:59;;;;;;;57.58;34.45;;;2.90;99.90;;;;;;5013772;28;20033;-79
2021/04/30 01:15:25;;;;;;;52.65;33.20;;;2.90;99.90;;;;;;5013396;28;20108;-79
2021/04/30 01:17:51;;;;;;;55.97;31.30;;;2.80;99.90;;;;;;5012750;28;20058;-79
2021/04/30 01:20:19;;;;;;;42.50;28.27;;;2.80;99.90;;;;;;5013725;28;20053;-79
2021/04/30 01:22:53;;;;;;;49.53;28.85;;;2.70;99.90;;;;;;5022139;28;20498;-79
2021/04/30 01:25:22;;;;;;;48.70;28.92;;;2.60;99.90;;;;;;5012462;28;20034;-79
2021/04/30 01:27:48;;;;;;;42.03;27.80;;;2.50;99.90;;;;;;5013575;28;20037;-79
2021/04/30 01:30:20;;;;;;;56.10;33.60;;;2.40;99.90;;;;;;5013700;28;20022;-79
2021/04/30 01:32:46;;;;;;;59.25;34.03;;;2.30;99.90;;;;;;5013671;28;20084;-78
2021/04/30 01:35:19;;;;;;;69.18;37.00;;;2.30;99.90;;;;;;5012080;28;20402;-79
2021/04/30 01:37:47;;;;;;;64.93;39.95;;;2.30;99.90;;;;;;5011307;28;20061;-79
2021/04/30 01:40:15;;;;;;;72.57;42.65;;;2.50;99.90;;;;;;5012645;28;20022;-79
2021/04/30 01:42:59;;;;;;;62.70;37.42;;;2.70;99.90;;;;;;5013321;28;20502;-79
2021/04/30 01:45:25;;;;;;;;;;;2.60;99.90;;;;;;5013173;28;20031;-79
2021/04/30 01:47:51;;;;;;;65.88;38.55;;;2.60;99.90;;;;;;5012495;28;20003;-79
2021/04/30 01:50:17;;;;;;;60.83;36.53;;;2.50;99.90;;;;;;5013246;28;20034;-79
2021/04/30 01:52:42;;;;;;;58.85;34.85;;;2.40;99.90;;;;;;5011806;28;20034;-79
2021/04/30 01:55:08;;;;;;;55.63;33.15;;;2.40;99.90;;;;;;5011805;28;20029;-79
2021/04/30 01:57:34;;;;;;;52.95;32.95;;;2.30;99.90;;;;;;5011943;28;20025;-79
2021/04/30 02:00:00;;;;;;;59.13;34.67;;;2.20;99.90;;;;;;5013012;28;20026;-79
2021/04/30 02:02:26;;;;;;;49.47;32.33;;;2.20;99.90;;;;;;5011762;28;20045;-79
2021/04/30 02:04:52;;;;;;;52.95;30.40;;;2.20;99.90;;;;;;5011288;28;20025;-79
2021/04/30 02:07:17;;;;;;;50.45;32.00;;;2.10;99.90;;;;;;5012097;28;20034;-79
2021/04/30 02:09:43;;;;;;;47.53;30.05;;;2.10;99.90;;;;;;5012135;28;20041;-79
2021/04/30 02:12:09;;;;;;;46.05;28.75;;;2.10;99.90;;;;;;5012963;28;20102;-79
2021/04/30 02:14:34;;;;;;;45.90;29.33;;;2.10;99.90;;;;;;5012165;28;20022;-79
2021/04/30 02:17:00;;;;;;;50.72;29.10;;;2.00;99.90;;;;;;5011670;28;20072;-79
2021/04/30 02:19:25;;;;;;;52.42;29.20;;;1.90;99.90;;;;;;5012040;28;20120;-79
2021/04/30 02:21:52;;;;;;;45.33;29.13;;;1.90;99.90;;;;;;5009595;28;20037;-79
2021/04/30 02:24:17;;;;;;;43.85;28.42;;;1.80;99.90;;;;;;5004181;28;20032;-79
2021/04/30 02:26:43;;;;;;;46.05;28.08;;;1.70;99.90;;;;;;5012606;28;20029;-79
2021/04/30 02:29:08;;;;;;;47.40;29.98;;;1.70;99.90;;;;;;5012524;28;20049;-79
2021/04/30 02:31:34;;;;;;;47.00;30.90;;;1.70;99.90;;;;;;5011662;28;20368;-79
2021/04/30 02:33:59;;;;;;;47.90;30.30;;;1.60;99.90;;;;;;5011284;28;20079;-79
2021/04/30 02:36:25;;;;;;;44.33;29.00;;;1.70;99.90;;;;;;5011624;28;20026;-79
2021/04/30 02:38:50;;;;;;;44.13;30.23;;;1.70;99.90;;;;;;5011746;28;20045;-79
2021/04/30 02:41:16;;;;;;;46.15;30.25;;;1.60;99.90;;;;;;5012287;28;20029;-79
2021/04/30 02:43:41;;;;;;;44.50;27.98;;;1.60;99.90;;;;;;5011809;28;20030;-79
2021/04/30 02:46:07;;;;;;;45.42;28.88;;;1.60;99.90;;;;;;5010997;28;20084;-79
2021/04/30 02:48:34;;;;;;;46.63;28.73;;;1.50;99.90;;;;;;5012343;28;20438;-79
2021/04/30 02:51:04;;;;;;;46.03;29.85;;;1.40;99.90;;;;;;5011103;28;20026;-79
2021/04/30 02:53:30;;;;;;;53.47;28.40;;;1.40;99.90;;;;;;5011001;28;20037;-79
2021/04/30 02:55:56;;;;;;;46.38;28.85;;;1.40;99.90;;;;;;5010035;28;20026;-79
2021/04/30 02:58:22;;;;;;;40.60;25.75;;;1.40;99.90;;;;;;5012314;28;20037;-79
2021/04/30 03:00:48;;;;;;;45.90;28.73;;;1.30;99.90;;;;;;5011958;28;20108;-78
2021/04/30 03:03:14;;;;;;;49.28;27.60;;;1.30;99.90;;;;;;5012363;28;20454;-79
2021/04/30 03:05:41;;;;;;;45.20;29.10;;;1.30;99.90;;;;;;5009369;28;20068;-79
2021/04/30 03:08:07;;;;;;;44.38;29.42;;;1.30;99.90;;;;;;5025889;28;20030;-79
2021/04/30 03:10:32;;;;;;;50.35;29.80;;;1.30;99.90;;;;;;5012984;28;20040;-79
2021/04/30 03:12:58;;;;;;;49.97;32.20;;;1.30;99.90;;;;;;5011633;28;20065;-79
2021/04/30 03:15:26;;;;;;;47.65;31.17;;;1.30;99.90;;;;;;5011037;28;20014;-79
2021/04/30 03:17:51;;;;;;;42.40;28.23;;;1.30;99.90;;;;;;5010564;28;20447;-79
2021/04/30 03:20:18;;;;;;;43.63;28.73;;;1.30;99.90;;;;;;5010986;28;20057;-79
2021/04/30 03:22:44;;;;;;;40.83;27.05;;;1.20;99.90;;;;;;5009645;28;20112;-79
2021/04/30 03:25:11;;;;;;;39.05;24.77;;;1.20;99.90;;;;;;5009363;28;20026;-79
2021/04/30 03:27:36;;;;;;;42.53;27.75;;;1.10;99.90;;;;;;5010522;28;20513;-79
2021/04/30 03:30:03;;;;;;;42.30;25.80;;;1.10;99.90;;;;;;5026924;28;20026;-79
2021/04/30 03:32:29;;;;;;;46.22;28.95;;;1.10;99.90;;;;;;5011717;28;20026;-79
2021/04/30 03:34:55;;;;;;;38.85;26.73;;;1.00;99.90;;;;;;5010093;28;20148;-79
2021/04/30 03:37:21;;;;;;;44.92;29.73;;;1.00;99.90;;;;;;5010284;28;20045;-79
2021/04/30 03:39:47;;;;;;;52.75;28.85;;;1.00;99.90;;;;;;5008536;28;20514;-78
2021/04/30 03:42:12;;;;;;;40.97;29.05;;;1.10;99.90;;;;;;5011881;28;20037;-78
2021/04/30 03:44:38;;;;;;;40.58;27.83;;;1.10;99.90;;;;;;5009866;28;20394;-79
2021/04/30 03:47:04;;;;;;;53.78;30.42;;;1.10;99.90;;;;;;5000669;28;20041;-78
2021/04/30 03:49:29;;;;;;;56.85;32.33;;;1.10;99.90;;;;;;5011576;28;20475;-78
2021/04/30 03:51:55;;;;;;;59.85;33.83;;;1.20;99.90;;;;;;5010670;28;20026;-79
2021/04/30 03:54:20;;;;;;;67.50;36.90;;;1.20;99.90;;;;;;5008007;28;20022;-79
2021/04/30 03:56:46;;;;;;;61.38;37.17;;;1.20;99.90;;;;;;5011477;28;20084;-79
2021/04/30 03:59:11;;;;;;;57.90;35.92;;;1.20;99.90;;;;;;5011615;28;20036;-79
2021/04/30 04:01:37;;;;;;;57.53;37.22;;;1.20;99.90;;;;;;5011372;28;20030;-79
2021/04/30 04:04:03;;;;;;;56.85;35.55;;;1.20;99.90;;;;;;5009258;28;20069;-79
2021/04/30 04:06:28;;;;;;;57.83;34.88;;;1.20;99.90;;;;;;5011088;28;20034;-79
2021/04/30 04:08:54;;;;;;;57.17;35.08;;;1.20;99.90;;;;;;5008255;28;20095;-79
2021/04/30 04:11:20;;;;;;;64.25;38.75;;;1.20;99.90;;;;;;5011231;28;20034;-79
2021/04/30 04:13:46;;;;;;;70.40;40.30;;;1.30;99.90;;;;;;5010789;28;20018;-79
2021/04/30 04:16:11;;;;;;;67.55;38.45;;;1.50;99.90;;;;;;5010139;28;20052;-79
2021/04/30 04:18:37;;;;;;;62.17;37.60;;;1.60;99.90;;;;;;5011367;28;20029;-79
2021/04/30 04:21:02;;;;;;;63.70;39.22;;;1.80;99.90;;;;;;5011390;28;20076;-79
2021/04/30 04:23:28;;;;;;;62.80;36.83;;;2.00;99.90;;;;;;5002591;28;20033;-79
2021/04/30 04:25:53;;;;;;;72.57;39.38;;;2.10;99.90;;;;;;5011554;28;20030;-79
2021/04/30 04:28:19;;;;;;;58.30;37.58;;;2.10;99.90;;;;;;5013879;28;20027;-79
2021/04/30 04:30:45;;;;;;;62.13;37.30;;;2.20;99.90;;;;;;5014855;28;20026;-79
2021/04/30 04:33:11;;;;;;;66.75;39.17;;;2.30;99.90;;;;;;5014171;28;20088;-79
2021/04/30 04:35:37;;;;;;;62.05;37.05;;;2.30;99.90;;;;;;5011239;28;20069;-79
2021/04/30 04:38:04;;;;;;;62.55;37.85;;;2.40;99.90;;;;;;5012654;28;20095;-79
2021/04/30 04:40:29;;;;;;;52.22;34.17;;;2.50;99.90;;;;;;5013980;28;20030;-79
2021/04/30 04:42:55;;;;;;;58.63;37.95;;;2.60;99.90;;;;;;5009810;28;20129;-79
2021/04/30 04:45:21;;;;;;;68.90;38.50;;;2.70;99.90;;;;;;4993321;28;20022;-79
2021/04/30 04:47:46;;;;;;;58.88;36.83;;;2.80;99.90;;;;;;5003169;28;20026;-79
2021/04/30 04:50:13;;;;;;;72.78;41.72;;;2.90;99.90;;;;;;5013227;28;20084;-79
2021/04/30 04:52:39;;;;;;;61.38;38.53;;;2.90;99.90;;;;;;5013810;28;20076;-79
2021/04/30 04:55:06;;;;;;;62.47;39.65;;;3.00;99.90;;;;;;5010945;28;20129;-79
2021/04/30 04:57:32;;;;;;;63.60;38.25;;;3.10;99.90;;;;;;5014432;28;20026;-79
2021/04/30 04:59:57;;;;;;;64.95;38.55;;;3.20;99.90;;;;;;5003682;28;20049;-79
2021/04/30 05:02:23;;;;;;;70.32;39.45;;;3.30;99.90;;;;;;5014307;28;20029;-79
2021/04/30 05:04:48;;;;;;;66.80;39.00;;;3.50;99.90;;;;;;5013807;28;20022;-79
2021/04/30 05:07:14;;;;;;;66.88;41.80;;;3.60;99.90;;;;;;5012656;28;20026;-79
2021/04/30 05:09:40;;;;;;;67.50;43.38;;;3.80;99.90;;;;;;5013258;28;20049;-79
2021/04/30 05:12:07;;;;;;;65.57;42.83;;;4.00;99.90;;;;;;5014235;28;20022;-79
2021/04/30 05:14:32;;;;;;;68.57;41.58;;;4.20;99.90;;;;;;5013476;28;20030;-79
2021/04/30 05:16:58;;;;;;;68.90;42.10;;;4.30;99.90;;;;;;5013877;28;20080;-79
2021/04/30 05:19:23;;;;;;;64.68;41.97;;;4.50;99.90;;;;;;5014112;28;20410;-79
2021/04/30 05:21:49;;;;;;;70.90;44.08;;;4.60;99.90;;;;;;5013045;28;20088;-79
2021/04/30 05:24:15;;;;;;;66.13;43.08;;;4.70;99.90;;;;;;5007812;28;20176;-79
2021/04/30 05:26:41;;;;;;;75.38;44.70;;;4.70;99.90;;;;;;5013826;28;20113;-79
2021/04/30 05:29:07;;;;;;;68.60;43.10;;;4.80;99.90;;;;;;5013910;28;20026;-79
2021/04/30 05:31:36;;;;;;;77.00;44.47;;;4.80;99.90;;;;;;5013671;28;20030;-79
2021/04/30 05:34:02;;;;;;;74.65;45.97;;;4.80;99.90;;;;;;5011850;28;20052;-79
2021/04/30 05:36:29;;;;;;;71.95;44.80;;;4.80;99.90;;;;;;5012992;28;20486;-79
2021/04/30 05:38:54;;;;;;;66.85;43.13;;;4.80;99.90;;;;;;5008244;28;20038;-79
2021/04/30 05:41:20;;;;;;;66.40;41.92;;;4.80;99.90;;;;;;5013354;28;20072;-79
2021/04/30 05:43:45;;;;;;;64.95;42.70;;;4.90;99.90;;;;;;5011718;28;20116;-79
2021/04/30 05:46:11;;;;;;;82.32;44.03;;;5.00;99.90;;;;;;5013589;28;20029;-79
2021/04/30 05:48:36;;;;;;;74.32;45.45;;;5.00;99.90;;;;;;5011817;28;20030;-79
2021/04/30 05:51:02;;;;;;;86.00;49.17;;;5.10;99.90;;;;;;5012757;28;20033;-79
2021/04/30 05:53:28;;;;;;;73.90;45.50;;;5.30;99.90;;;;;;5010600;28;20055;-79
2021/04/30 05:55:54;;;;;;;71.60;45.97;;;5.50;99.90;;;;;;5011611;28;20052;-79
2021/04/30 05:58:19;;;;;;;74.90;45.03;;;5.80;99.90;;;;;;5013394;28;20645;-79
2021/04/30 06:00:45;;;;;;;71.55;47.83;;;6.00;99.90;;;;;;5011446;28;20212;-79
2021/04/30 06:03:10;;;;;;;84.20;50.30;;;6.30;99.90;;;;;;5012758;28;20065;-79
2021/04/30 06:05:36;;;;;;;90.50;52.72;;;6.50;99.90;;;;;;5011637;28;20105;-79
2021/04/30 06:08:02;;;;;;;83.85;51.38;;;6.80;99.90;;;;;;5012241;28;20026;-79
2021/04/30 06:10:28;;;;;;;83.45;53.40;;;7.10;99.90;;;;;;5010679;28;20048;-79
2021/04/30 06:12:53;;;;;;;84.55;52.33;;;7.30;99.90;;;;;;5012840;28;20072;-79
2021/04/30 06:15:19;;;;;;;86.90;52.95;;;7.50;99.90;;;;;;5010928;28;20025;-79
2021/04/30 06:17:44;;;;;;;76.88;48.50;;;7.60;99.90;;;;;;5011599;28;20026;-79
2021/04/30 06:20:10;;;;;;;68.70;46.40;;;7.80;99.90;;;;;;5010551;28;20025;-79
2021/04/30 06:22:36;;;;;;;70.80;47.90;;;7.70;99.90;;;;;;5007193;28;20030;-79
2021/04/30 06:25:04;;;;;;;69.28;46.30;;;7.80;99.90;;;;;;5008254;28;20125;-79
2021/04/30 06:27:29;;;;;;;75.85;46.53;;;7.90;99.90;;;;;;5012691;28;20030;-79
2021/04/30 06:29:55;;;;;;;63.00;44.67;;;8.00;99.90;;;;;;5012489;28;20033;-79
2021/04/30 06:32:20;;;;;;;63.30;42.55;;;8.00;99.90;;;;;;5012562;28;20030;-79
2021/04/30 06:34:46;;;;;;;57.72;42.00;;;8.00;99.90;;;;;;5010628;28;20060;-79
2021/04/30 06:37:12;;;;;;;64.95;42.65;;;7.80;99.90;;;;;;5010269;28;20034;-79
2021/04/30 06:39:38;;;;;;;63.13;42.95;;;7.70;99.90;;;;;;5009391;28;20053;-79
2021/04/30 06:42:04;;;;;;;69.75;47.08;;;7.70;99.90;;;;;;5012404;28;20025;-79
2021/04/30 06:44:30;;;;;;;63.80;45.60;;;7.70;99.90;;;;;;5011764;28;20018;-79
2021/04/30 06:46:57;;;;;;;72.97;45.17;;;7.60;99.90;;;;;;5006888;28;20507;-79
2021/04/30 06:49:22;;;;;;;61.22;42.40;;;7.60;99.90;;;;;;5010054;28;20502;-79
2021/04/30 06:51:49;;;;;;;58.28;40.35;;;7.70;99.90;;;;;;5011412;28;20488;-79
2021/04/30 06:54:15;;;;;;;62.50;39.78;;;7.70;99.90;;;;;;5009346;28;20022;-79
2021/04/30 06:56:41;;;;;;;63.08;41.70;;;7.80;99.90;;;;;;5012038;28;20057;-80
2021/04/30 06:59:06;;;;;;;78.25;49.88;;;7.80;99.90;;;;;;5012214;28;20502;-78
2021/04/30 07:01:32;;;;;;;69.30;45.83;;;7.80;99.90;;;;;;5010664;28;20033;-78
2021/04/30 07:03:57;;;;;;;56.25;36.97;;;7.90;99.90;;;;;;5010538;28;20042;-79
2021/04/30 07:06:23;;;;;;;59.88;38.90;;;8.00;99.90;;;;;;5009942;28;20029;-79
2021/04/30 07:08:50;;;;;;;59.75;37.58;;;8.10;99.90;;;;;;5011242;28;20148;-79
2021/04/30 07:11:15;;;;;;;58.92;38.20;;;8.20;99.90;;;;;;5010518;28;20104;-79
2021/04/30 07:13:41;;;;;;;60.42;43.10;;;8.20;99.90;;;;;;5011525;28;20116;-79
2021/04/30 07:16:07;;;;;;;66.60;44.20;;;8.20;99.90;;;;;;5010239;28;20057;-79
2021/04/30 07:18:33;;;;;;;57.53;38.25;;;8.40;99.90;;;;;;5011886;28;20033;-79
2021/04/30 07:20:59;;;;;;;88.78;53.17;;;8.50;99.90;;;;;;5009615;28;20034;-79
2021/04/30 07:23:26;;;;;;;51.17;37.22;;;8.60;99.90;;;;;;5011602;28;20026;-77
2021/04/30 07:25:51;;;;;;;37.97;31.33;;;8.80;99.90;;;;;;4999786;28;20033;-77
2021/04/30 07:28:17;;;;;;;46.88;31.05;;;9.00;99.90;;;;;;4995603;28;20030;-77
2021/04/30 07:30:43;;;;;;;47.17;33.67;;;9.30;99.90;;;;;;4995141;28;20034;-77
2021/04/30 07:33:09;;;;;;;35.17;27.30;;;9.60;99.90;;;;;;5001062;28;20403;-78
2021/04/30 07:35:34;;;;;;;40.75;28.05;;;9.90;99.90;;;;;;5001956;28;20022;-78
2021/04/30 07:38:00;;;;;;;35.13;26.38;;;10.10;99.90;;;;;;4994706;28;20061;-78
2021/04/30 07:40:26;;;;;;;31.58;25.15;;;10.20;99.90;;;;;;5002215;28;20042;-78
2021/04/30 07:42:52;;;;;;;32.13;23.92;;;10.30;99.90;;;;;;4999302;28;20033;-76
2021/04/30 07:45:18;;;;;;;35.88;23.33;;;10.40;99.90;;;;;;4995872;28;20034;-77
2021/04/30 07:47:44;;;;;;;30.77;22.48;;;10.60;99.90;;;;;;4988089;28;20030;-77
2021/04/30 07:50:10;;;;;;;31.08;21.77;;;10.90;99.90;;;;;;4997310;28;20445;-79
2021/04/30 07:52:35;;;;;;;27.75;21.60;;;11.20;99.90;;;;;;5005367;28;20026;-78
2021/04/30 07:55:01;;;;;;;30.75;20.10;;;11.30;99.90;;;;;;5019438;28;20030;-78
2021/04/30 07:57:30;;;;;;;40.17;23.05;;;11.40;99.90;;;;;;5001164;28;20041;-78
2021/04/30 07:59:56;;;;;;;28.77;22.30;;;11.40;99.90;;;;;;5011197;28;20034;-79
2021/04/30 08:02:22;;;;;;;22.38;18.55;;;11.50;99.90;;;;;;5008619;28;20085;-77
2021/04/30 08:04:48;;;;;;;24.08;18.50;;;11.80;99.90;;;;;;4994095;28;20077;-77
2021/04/30 08:07:14;;;;;;;24.88;17.30;;;12.10;99.90;;;;;;5000157;28;20435;-77
2021/04/30 08:09:41;;;;;;;18.15;14.30;;;12.30;99.90;;;;;;5000088;28;20026;-78
2021/04/30 08:12:07;;;;;;;19.75;14.48;;;12.40;99.90;;;;;;5010617;28;20490;-78
2021/04/30 08:14:32;;;;;;;18.67;15.05;;;12.70;99.90;;;;;;5011731;28;20026;-78
2021/04/30 08:16:58;;;;;;;14.20;12.35;;;12.70;99.90;;;;;;5014888;28;20037;-77
2021/04/30 08:19:25;;;;;;;17.80;13.10;;;12.80;99.90;;;;;;5012848;28;20497;-78
2021/04/30 08:21:51;;;;;;;16.20;12.73;;;12.90;99.90;;;;;;5015123;28;20052;-78
2021/04/30 08:24:17;;;;;;;17.77;12.98;;;13.20;99.90;;;;;;5014260;28;20057;-78
2021/04/30 08:26:42;;;;;;;19.85;14.00;;;13.50;99.90;;;;;;5014477;28;20076;-78
2021/04/30 08:29:08;;;;;;;22.70;13.40;;;13.80;99.90;;;;;;5013825;28;20025;-78
2021/04/30 08:31:33;;;;;;;14.27;11.68;;;14.00;99.90;;;;;;5013331;28;20048;-78
2021/04/30 08:33:59;;;;;;;17.05;11.88;;;14.00;99.90;;;;;;5014171;28;20034;-78
2021/04/30 08:36:24;;;;;;;15.77;10.80;;;14.00;99.90;;;;;;5015012;28;20022;-77
2021/04/30 08:38:50;;;;;;;12.52;10.18;;;14.30;99.90;;;;;;5013953;28;20386;-77
2021/04/30 08:41:18;;;;;;;13.90;10.00;;;14.60;99.90;;;;;;5014636;28;20026;-77
2021/04/30 08:43:45;;;;;;;16.40;10.13;;;14.80;99.90;;;;;;5014243;28;20100;-77
2021/04/30 08:46:12;;;;;;;12.88;10.57;;;14.90;99.90;;;;;;5014699;28;20033;-77
2021/04/30 08:48:38;;;;;;;12.45;9.98;;;15.00;99.90;;;;;;5012864;28;20721;-77
2021/04/30 08:51:04;;;;;;;12.68;9.65;;;15.20;99.90;;;;;;5014502;28;20383;-77
2021/04/30 08:53:30;;;;;;;18.23;9.55;;;15.30;99.90;;;;;;5014537;28;20066;-77
2021/04/30 08:55:58;;;;;;;14.13;9.93;;;15.20;99.90;;;;;;5013552;28;20030;-77
2021/04/30 08:58:27;;;;;;;13.57;10.10;;;15.00;99.90;;;;;;5014533;28;20022;-77
2021/04/30 09:00:53;;;;;;;13.93;9.13;;;14.80;99.90;;;;;;5014217;28;20121;-76
2021/04/30 09:03:19;;;;;;;11.93;8.80;;;14.80;99.90;;;;;;5014157;28;20022;-77
2021/04/30 09:05:47;;;;;;;14.00;10.93;;;14.80;99.90;;;;;;5013122;28;20509;-77
2021/04/30 09:08:13;;;;;;;10.85;9.05;;;14.70;99.90;;;;;;5014450;28;20018;-77
2021/04/30 09:10:44;;;;;;;12.00;9.25;;;14.60;99.90;;;;;;5012476;28;20513;-77
2021/04/30 09:13:12;;;;;;;12.10;9.98;;;14.70;99.90;;;;;;5013363;28;20026;-77
2021/04/30 09:15:40;;;;;;;25.40;10.30;;;14.60;99.90;;;;;;5013157;28;20049;-77
2021/04/30 09:18:28;;;;;;;12.68;9.70;;;14.80;99.90;;;;;;5014099;28;20093;-77
2021/04/30 09:20:55;;;;;;;12.18;10.30;;;14.80;99.90;;;;;;5014191;28;20044;-77
2021/04/30 09:23:36;;;;;;;14.13;11.02;;;15.10;99.90;;;;;;5014126;28;20037;-77
2021/04/30 09:26:19;;;;;;;15.80;11.45;;;15.30;99.90;;;;;;5012194;28;20033;-77
2021/04/30 09:28:57;;;;;;;15.38;10.40;;;15.80;99.90;;;;;;5014061;28;20022;-77
2021/04/30 09:31:52;;;;;;;18.67;11.80;;;16.00;99.90;;;;;;5013940;28;20438;-77
2021/04/30 09:34:35;;;;;;;15.90;11.98;;;16.10;99.90;;;;;;5012002;28;20045;-77
2021/04/30 09:37:10;;;;;;;15.73;11.75;;;16.20;99.90;;;;;;5013861;28;20018;-77
2021/04/30 09:39:50;;;;;;;16.85;11.23;;;16.50;99.90;;;;;;5013234;28;20021;-77
2021/04/30 09:42:17;;;;;;;16.60;12.40;;;16.70;99.90;;;;;;5012397;28;20054;-77
2021/04/30 09:44:46;;;;;;;11.93;10.63;;;16.70;99.90;;;;;;5012209;28;20014;-77
2021/04/30 09:47:17;;;;;;;13.82;10.18;;;17.00;99.90;;;;;;5012137;28;20492;-77
2021/04/30 09:49:44;;;;;;;15.48;10.48;;;17.20;99.90;;;;;;5013483;28;20494;-77
2021/04/30 09:52:12;;;;;;;13.88;10.07;;;17.50;99.90;;;;;;5013218;28;20107;-78
2021/04/30 09:54:38;;;;;;;10.38;9.27;;;17.40;99.90;;;;;;5011396;28;20042;-78
2021/04/30 09:57:23;;;;;;;13.45;9.35;;;17.20;99.90;;;;;;5013328;28;20025;-77
2021/04/30 09:59:52;;;;;;;13.63;10.20;;;17.20;99.90;;;;;;5013291;28;20022;-77
2021/04/30 10:02:19;;;;;;;11.43;9.48;;;17.50;99.90;;;;;;5011868;28;20500;-78
2021/04/30 10:04:46;;;;;;;11.90;8.60;;;17.40;99.90;;;;;;5012030;28;20041;-79
2021/04/30 10:07:26;;;;;;;10.70;9.02;;;17.50;99.90;;;;;;5013193;28;20029;-78
2021/04/30 10:10:11;;;;;;;12.38;9.90;;;17.70;99.90;;;;;;5012956;28;20025;-80
2021/04/30 10:12:39;;;;;;;12.43;10.00;;;17.50;99.90;;;;;;5011898;28;20037;-82
2021/04/30 10:15:07;;;;;;;12.77;8.90;;;17.30;99.90;;;;;;5012134;28;20033;-79
2021/04/30 10:17:33;;;;;;;10.93;8.68;;;17.00;99.90;;;;;;5013073;28;20042;-79
2021/04/30 10:19:58;;;;;;;12.07;8.45;;;16.90;99.90;;;;;;5012784;28;20061;-79
2021/04/30 10:22:26;;;;;;;12.63;9.57;;;17.00;99.90;;;;;;5011555;28;20022;-79
2021/04/30 10:24:57;;;;;;;12.05;9.02;;;17.30;99.90;;;;;;5010318;28;20025;-79
2021/04/30 10:27:33;;;;;;;15.02;9.90;;;17.60;99.90;;;;;;5012590;28;20430;-79
2021/04/30 10:30:16;;;;;;;13.30;9.43;;;17.80;99.90;;;;;;5012746;28;20481;-79
2021/04/30 10:32:53;;;;;;;8.77;7.68;;;17.90;99.90;;;;;;5012821;28;20060;-79
2021/04/30 10:35:26;;;;;;;9.80;8.32;;;18.00;99.90;;;;;;4996872;28;20030;-79
2021/04/30 10:37:57;;;;;;;11.38;9.25;;;17.70;99.90;;;;;;4996580;28;20030;-78
2021/04/30 10:40:23;;;;;;;12.75;9.35;;;17.90;99.90;;;;;;4998192;28;20082;-78
2021/04/30 10:42:49;;;;;;;15.98;9.00;;;18.00;99.90;;;;;;4992844;28;20506;-79
2021/04/30 10:45:16;;;;;;;12.70;9.18;;;18.50;99.90;;;;;;4997052;28;20073;-79
2021/04/30 10:48:02;;;;;;;12.07;9.05;;;18.80;99.90;;;;;;4992244;28;20026;-81
2021/04/30 10:50:28;;;;;;;10.48;9.10;;;18.70;99.90;;;;;;4998196;28;20491;-77
2021/04/30 10:53:13;;;;;;;11.10;9.13;;;18.80;99.90;;;;;;5004857;28;20030;-78
2021/04/30 10:55:41;;;;;;;15.60;8.73;;;19.00;99.90;;;;;;5005420;28;20030;-77
2021/04/30 10:58:06;;;;;;;10.85;8.93;;;19.00;99.90;;;;;;4986330;28;20049;-79
2021/04/30 11:00:42;;;;;;;10.07;9.00;;;18.80;99.90;;;;;;5006181;28;20061;-78
2021/04/30 11:03:23;;;;;;;13.52;9.00;;;19.20;99.90;;;;;;5020821;28;20034;-78
2021/04/30 11:05:59;;;;;;;15.90;9.00;;;19.60;99.90;;;;;;4998754;28;20037;-78
2021/04/30 11:08:49;;;;;;;11.60;8.82;;;19.30;99.90;;;;;;4994774;28;20026;-78
2021/04/30 11:11:16;;;;;;;13.40;9.73;;;19.70;99.90;;;;;;4988224;28;20084;-78
2021/04/30 11:14:01;;;;;;;14.98;9.45;;;19.80;99.90;;;;;;4996822;28;20031;-79
2021/04/30 11:16:40;;;;;;;15.18;8.63;;;19.90;99.90;;;;;;5004560;28;20085;-78
2021/04/30 11:19:05;;;;;;;10.63;8.18;;;20.00;99.90;;;;;;5006596;28;20022;-78
2021/04/30 11:21:41;;;;;;;9.00;8.02;;;19.80;99.90;;;;;;5006105;28;20080;-79
2021/04/30 11:24:28;;;;;;;13.10;8.77;;;20.20;99.90;;;;;;4998877;28;20065;-78
2021/04/30 11:27:12;;;;;;;11.45;8.35;;;20.50;99.90;;;;;;4999648;28;20503;-79
2021/04/30 11:29:40;;;;;;;10.20;8.07;;;20.70;99.90;;;;;;4997087;28;20041;-79
2021/04/30 11:32:27;;;;;;;9.50;8.35;;;21.00;99.90;;;;;;5001325;28;20034;-79
2021/04/30 11:34:54;;;;;;;8.60;7.68;;;20.80;99.90;;;;;;5002542;28;20657;-77
2021/04/30 11:37:21;;;;;;;9.85;7.28;;;21.10;99.90;;;;;;5001678;28;20026;-79
2021/04/30 11:39:48;;;;;;;12.93;8.25;;;20.50;99.90;;;;;;4996361;28;20482;-79
2021/04/30 11:42:14;;;;;;;15.85;7.63;;;20.00;99.90;;;;;;4994506;28;20397;-80
2021/04/30 11:44:41;;;;;;;9.60;7.38;;;19.50;99.90;;;;;;4991545;28;20030;-79
2021/04/30 11:47:09;;;;;;;13.35;9.20;;;18.80;99.90;;;;;;4992824;28;20027;-79
2021/04/30 11:49:37;;;;;;;14.52;8.85;;;18.50;99.90;;;;;;5000478;28;20029;-78
2021/04/30 11:52:04;;;;;;;12.88;8.10;;;18.30;99.90;;;;;;4999074;28;20029;-79
2021/04/30 11:54:35;;;;;;;10.38;7.95;;;18.70;99.90;;;;;;5004423;28;20490;-79
2021/04/30 11:57:04;;;;;;;12.75;9.55;;;19.00;99.90;;;;;;4995561;28;20081;-79
2021/04/30 11:59:30;;;;;;;11.02;8.10;;;18.70;99.90;;;;;;5007093;28;20026;-79
2021/04/30 12:02:04;;;;;;;10.70;9.05;;;18.30;99.90;;;;;;5010941;28;20525;-79
2021/04/30 12:04:52;;;;;;;10.48;8.52;;;18.00;99.90;;;;;;5010928;28;20038;-79
2021/04/30 12:07:20;;;;;;;13.30;9.45;;;17.60;99.90;;;;;;5011596;28;20489;-79
2021/04/30 12:09:46;;;;;;;12.35;9.02;;;17.40;99.90;;;;;;5010732;28;20486;-79
2021/04/30 12:12:27;;;;;;;13.68;9.23;;;16.90;99.90;;;;;;5011253;28;20180;-79
2021/04/30 12:15:05;;;;;;;15.55;11.65;;;16.60;99.90;;;;;;5009646;28;20064;-78
2021/04/30 12:17:35;;;;;;;15.40;10.43;;;16.10;99.90;;;;;;5010224;28;20117;-78
2021/04/30 12:20:05;;;;;;;19.25;9.95;;;15.60;99.90;;;;;;5009842;28;20108;-78
2021/04/30 12:22:31;;;;;;;17.02;10.07;;;15.30;99.90;;;;;;5010985;28;20065;-78
2021/04/30 12:25:21;;;;;;;20.15;11.40;;;15.00;99.90;;;;;;5010330;28;20026;-78
2021/04/30 12:27:48;;;;;;;13.85;11.23;;;15.00;99.90;;;;;;5011356;28;20026;-78
2021/04/30 12:30:28;;;;;;;16.58;10.32;;;14.90;99.90;;;;;;5011284;28;20045;-78
2021/04/30 12:32:54;;;;;;;19.58;12.75;;;14.90;99.90;;;;;;5010589;28;20057;-78
2021/04/30 12:35:20;;;;;;;33.53;23.38;;;14.90;99.90;;;;;;5008930;28;20021;-78
2021/04/30 12:37:46;;;;;;;38.80;22.95;;;14.00;99.90;;;;;;5026398;28;20402;-78